Date,TemperatureHighF,TemperatureAvgF,TemperatureLowF,DewpointHighF,DewpointAvgF,DewpointLowF,HumidityHigh,HumidityAvg,HumidityLow,PressureMaxIn,PressureMinIn,WindSpeedMaxMPH,WindSpeedAvgMPH,GustSpeedMaxMPH,PrecipitationSumIn
2013-3-1,50,39,28,24,20,16,67,48,31,30.30,30.21,16,3,16,0.00
2013-3-2,62,46,30,28,25,22,75,47,23,30.28,30.07,13,2,13,0.00
2013-3-3,65,50,37,29,25,21,65,40,19,30.07,29.73,21,4,21,0.00
2013-3-4,48,32,20,29,24,15,92,74,42,30.22,29.76,24,4,24,0.01
2013-3-5,41,28,14,22,16,8,81,63,42,30.24,30.14,14,2,14,0.00
2013-3-6,60,39,21,30,22,15,88,58,17,30.14,29.88,13,2,13,0.00
2013-3-7,65,47,29,30,26,3,79,48,20,30.01,25.72,96,4,96,0.00
2013-3-8,49,40,33,34,30,27,83,69,48,30.01,29.75,14,2,14,0.00
2013-3-9,37,32,26,32,28,18,95,85,65,30.10,29.72,23,7,23,0.01
2013-3-10,44,32,18,24,19,14,87,59,35,30.14,30.05,12,2,12,0.00
2013-3-11,54,40,30,30,24,17,92,58,29,30.16,29.95,34,6,35,0.01
2013-3-12,41,32,25,31,28,23,94,83,62,30.29,30.16,7,1,7,0.00
2013-3-13,66,47,30,36,28,22,88,55,21,30.26,30.17,17,3,17,0.00
2013-3-14,73,60,42,30,24,12,56,28,10,30.31,30.17,18,3,18,0.00
2013-3-15,77,58,47,30,26,23,46,30,14,30.17,29.93,23,5,23,0.36
2013-3-16,55,48,41,36,32,25,75,56,36,30.06,29.89,14,3,14,0.00
2013-3-17,63,45,31,33,26,14,84,52,18,29.91,29.64,28,7,28,0.00
2013-3-18,52,38,29,19,13,8,55,36,24,29.97,29.91,26,8,26,0.00
2013-3-19,60,50,31,18,8,-9,56,21,7,30.29,29.98,18,4,18,0.00
2013-3-20,57,40,24,27,20,16,77,50,26,30.28,29.67,12,1,12,0.00
2013-3-21,64,44,33,36,23,11,70,45,21,29.73,29.37,23,5,23,0.00
2013-3-22,53,37,28,29,22,14,92,58,32,29.89,29.57,25,3,25,0.01
2013-3-23,28,21,13,26,17,10,94,85,75,30.12,29.88,22,3,22,0.03
2013-3-24,34,20,5,22,13,2,92,75,50,30.14,30.03,15,1,15,0.00
2013-3-25,38,26,15,21,15,10,87,64,36,30.56,30.13,9,1,11,0.42
2013-3-26,57,28,18,33,18,13,91,69,26,30.51,30.08,12,1,12,0.00
2013-3-27,60,45,28,38,31,24,87,61,39,30.24,30.12,14,1,14,0.00
2013-3-28,69,48,32,38,33,28,94,61,23,30.21,30.05,13,1,13,0.00
2013-3-29,70,56,36,36,32,28,83,44,23,30.14,29.87,25,2,25,0.00
2013-3-30,71,45,38,39,32,24,80,62,20,30.18,29.81,26,2,26,0.00
2013-3-31,76,54,34,37,28,17,92,46,12,30.17,29.88,18,4,18,0.00